sensor_id;sensor_type;location;lat;lon;timestamp;pressure;altitude;pressure_sealevel;temperature;humidity
18749;BME280;9503;53.560;10.246;2022-07-21T00:02:16;100819.22;;;21.46;80.47
18749;BME280;9503;53.560;10.246;2022-07-21T00:04:43;100822.69;;;21.51;80.13
18749;BME280;9503;53.560;10.246;2022-07-21T00:07:10;100824.44;;;21.45;80.23
18749;BME280;9503;53.560;10.246;2022-07-21T00:09:36;100823.47;;;21.34;80.23
18749;BME280;9503;53.560;10.246;2022-07-21T00:12:07;100833.91;;;21.35;80.05
18749;BME280;9503;53.560;10.246;2022-07-21T00:14:34;100840.91;;;21.38;79.93
18749;BME280;9503;53.560;10.246;2022-07-21T00:17:01;100847.00;;;21.43;79.46
18749;BME280;9503;53.560;10.246;2022-07-21T00:19:28;100853.03;;;21.36;79.93
18749;BME280;9503;53.560;10.246;2022-07-21T00:21:55;100841.78;;;21.38;79.83
18749;BME280;9503;53.560;10.246;2022-07-21T00:24:22;100831.31;;;21.31;80.03
18749;BME280;9503;53.560;10.246;2022-07-21T00:26:50;100820.00;;;21.30;80.08
18749;BME280;9503;53.560;10.246;2022-07-21T00:29:18;100814.72;;;21.24;80.36
18749;BME280;9503;53.560;10.246;2022-07-21T00:31:45;100813.78;;;21.20;79.98
18749;BME280;9503;53.560;10.246;2022-07-21T00:34:12;100813.75;;;21.14;80.19
18749;BME280;9503;53.560;10.246;2022-07-21T00:36:39;100805.00;;;21.02;80.90
18749;BME280;9503;53.560;10.246;2022-07-21T00:39:05;100798.88;;;21.00;81.00
18749;BME280;9503;53.560;10.246;2022-07-21T00:41:32;100802.34;;;20.97;80.87
18749;BME280;9503;53.560;10.246;2022-07-21T00:43:59;100796.16;;;20.80;81.41
18749;BME280;9503;53.560;10.246;2022-07-21T00:46:28;100797.09;;;20.88;81.04
18749;BME280;9503;53.560;10.246;2022-07-21T00:48:55;100784.88;;;20.82;81.23
18749;BME280;9503;53.560;10.246;2022-07-21T00:51:22;100784.88;;;20.85;80.81
18749;BME280;9503;53.560;10.246;2022-07-21T00:53:49;100775.31;;;20.81;81.07
18749;BME280;9503;53.560;10.246;2022-07-21T00:56:17;100782.22;;;20.75;80.86
18749;BME280;9503;53.560;10.246;2022-07-21T00:58:46;100784.81;;;20.73;81.14
18749;BME280;9503;53.560;10.246;2022-07-21T01:01:13;100782.19;;;20.72;81.35
18749;BME280;9503;53.560;10.246;2022-07-21T01:03:43;100783.06;;;20.72;80.78
18749;BME280;9503;53.560;10.246;2022-07-21T01:06:10;100774.38;;;20.73;81.04
18749;BME280;9503;53.560;10.246;2022-07-21T01:08:36;100774.34;;;20.67;81.08
18749;BME280;9503;53.560;10.246;2022-07-21T01:11:04;100775.22;;;20.67;81.12
18749;BME280;9503;53.560;10.246;2022-07-21T01:13:31;100777.75;;;20.63;81.39
18749;BME280;9503;53.560;10.246;2022-07-21T01:16:07;100777.75;;;20.61;81.50
18749;BME280;9503;53.560;10.246;2022-07-21T01:18:34;100782.09;;;20.58;81.64
18749;BME280;9503;53.560;10.246;2022-07-21T01:23:45;100782.97;;;20.58;82.01
18749;BME280;9503;53.560;10.246;2022-07-21T01:26:15;100772.53;;;20.57;82.25
18749;BME280;9503;53.560;10.246;2022-07-21T01:28:42;100779.44;;;20.56;82.44
18749;BME280;9503;53.560;10.246;2022-07-21T01:31:09;100779.44;;;20.55;82.69
18749;BME280;9503;53.560;10.246;2022-07-21T01:33:37;100773.41;;;20.57;82.46
18749;BME280;9503;53.560;10.246;2022-07-21T01:36:05;100769.13;;;20.64;82.30
18749;BME280;9503;53.560;10.246;2022-07-21T01:38:32;100767.34;;;20.60;82.30
18749;BME280;9503;53.560;10.246;2022-07-21T01:41:17;100771.72;;;20.64;82.34
18749;BME280;9503;53.560;10.246;2022-07-21T01:43:59;100782.84;;;20.45;82.77
18749;BME280;9503;53.560;10.246;2022-07-21T01:46:26;100800.06;;;20.33;83.50
18749;BME280;9503;53.560;10.246;2022-07-21T01:48:53;100834.53;;;20.11;84.66
18749;BME280;9503;53.560;10.246;2022-07-21T01:51:20;100906.44;;;20.00;85.43
18749;BME280;9503;53.560;10.246;2022-07-21T01:53:47;100930.00;;;20.12;84.91
18749;BME280;9503;53.560;10.246;2022-07-21T01:56:14;100908.56;;;20.31;83.54
18749;BME280;9503;53.560;10.246;2022-07-21T01:58:43;100893.28;;;20.62;82.02
18749;BME280;9503;53.560;10.246;2022-07-21T02:01:10;100911.41;;;20.51;82.36
18749;BME280;9503;53.560;10.246;2022-07-21T02:03:37;100912.31;;;20.56;82.53
18749;BME280;9503;53.560;10.246;2022-07-21T02:06:05;100891.59;;;20.68;82.39
18749;BME280;9503;53.560;10.246;2022-07-21T02:08:33;100883.69;;;20.59;82.93
18749;BME280;9503;53.560;10.246;2022-07-21T02:11:00;100891.59;;;20.67;82.66
18749;BME280;9503;53.560;10.246;2022-07-21T02:13:27;100896.75;;;20.62;83.67
18749;BME280;9503;53.560;10.246;2022-07-21T02:15:55;100898.38;;;20.51;83.94
18749;BME280;9503;53.560;10.246;2022-07-21T02:18:23;100894.06;;;20.53;84.01
18749;BME280;9503;53.560;10.246;2022-07-21T02:23:32;100891.44;;;20.53;84.12
18749;BME280;9503;53.560;10.246;2022-07-21T02:25:59;100894.94;;;20.54;84.67
18749;BME280;9503;53.560;10.246;2022-07-21T02:28:26;100894.75;;;20.38;84.96
18749;BME280;9503;53.560;10.246;2022-07-21T02:30:55;100898.38;;;20.50;84.62
18749;BME280;9503;53.560;10.246;2022-07-21T02:33:23;100913.09;;;20.46;84.93
18749;BME280;9503;53.560;10.246;2022-07-21T02:35:51;100904.41;;;20.46;84.72
18749;BME280;9503;53.560;10.246;2022-07-21T02:38:18;100881.84;;;20.48;84.53
18749;BME280;9503;53.560;10.246;2022-07-21T02:40:45;100870.53;;;20.46;84.57
18749;BME280;9503;53.560;10.246;2022-07-21T02:43:12;100880.00;;;20.40;84.90
18749;BME280;9503;53.560;10.246;2022-07-21T02:45:39;100873.13;;;20.44;85.18
18749;BME280;9503;53.560;10.246;2022-07-21T02:48:11;100866.25;;;20.49;85.25
18749;BME280;9503;53.560;10.246;2022-07-21T02:50:40;100860.13;;;20.47;85.67
18749;BME280;9503;53.560;10.246;2022-07-21T02:53:10;100873.91;;;20.38;86.14
18749;BME280;9503;53.560;10.246;2022-07-21T02:55:37;100873.81;;;20.29;86.79
18749;BME280;9503;53.560;10.246;2022-07-21T02:58:10;100888.44;;;20.20;87.58
18749;BME280;9503;53.560;10.246;2022-07-21T03:00:39;100882.50;;;20.28;87.68
18749;BME280;9503;53.560;10.246;2022-07-21T03:03:09;100881.63;;;20.31;87.74
18749;BME280;9503;53.560;10.246;2022-07-21T03:05:37;100886.84;;;20.32;87.83
18749;BME280;9503;53.560;10.246;2022-07-21T03:08:07;100891.03;;;20.20;88.93
18749;BME280;9503;53.560;10.246;2022-07-21T03:10:37;100878.13;;;20.27;88.88
18749;BME280;9503;53.560;10.246;2022-07-21T03:13:05;100878.16;;;20.30;88.80
18749;BME280;9503;53.560;10.246;2022-07-21T03:15:32;100879.03;;;20.31;89.27
18749;BME280;9503;53.560;10.246;2022-07-21T03:17:59;100877.28;;;20.30;89.49
18749;BME280;9503;53.560;10.246;2022-07-21T03:20:29;100872.94;;;20.27;90.00
18749;BME280;9503;53.560;10.246;2022-07-21T03:22:57;100872.06;;;20.28;90.08
18749;BME280;9503;53.560;10.246;2022-07-21T03:25:24;100865.06;;;20.23;91.07
18749;BME280;9503;53.560;10.246;2022-07-21T03:27:56;100862.53;;;20.30;91.03
18749;BME280;9503;53.560;10.246;2022-07-21T03:30:23;100864.06;;;20.11;92.21
18749;BME280;9503;53.560;10.246;2022-07-21T03:32:51;100863.47;;;20.35;91.51
18749;BME280;9503;53.560;10.246;2022-07-21T03:35:18;100872.16;;;20.36;91.73
18749;BME280;9503;53.560;10.246;2022-07-21T03:37:50;100880.84;;;20.36;91.77
18749;BME280;9503;53.560;10.246;2022-07-21T03:40:20;100885.13;;;20.34;92.52
18749;BME280;9503;53.560;10.246;2022-07-21T03:42:51;100885.25;;;20.42;92.18
18749;BME280;9503;53.560;10.246;2022-07-21T03:45:22;100893.97;;;20.46;92.25
18749;BME280;9503;53.560;10.246;2022-07-21T03:47:49;100895.88;;;20.60;91.94
18749;BME280;9503;53.560;10.246;2022-07-21T03:50:16;100898.53;;;20.65;92.14
18749;BME280;9503;53.560;10.246;2022-07-21T03:52:43;100906.50;;;20.85;91.58
18749;BME280;9503;53.560;10.246;2022-07-21T03:55:12;100901.34;;;20.91;91.21
18749;BME280;9503;53.560;10.246;2022-07-21T03:57:42;100906.44;;;20.77;92.63
18749;BME280;9503;53.560;10.246;2022-07-21T04:00:11;100904.91;;;20.99;92.00
18749;BME280;9503;53.560;10.246;2022-07-21T04:02:39;100907.59;;;21.08;91.52
18749;BME280;9503;53.560;10.246;2022-07-21T04:05:08;100905.00;;;21.10;91.35
18749;BME280;9503;53.560;10.246;2022-07-21T04:07:37;100919.03;;;21.24;90.57
18749;BME280;9503;53.560;10.246;2022-07-21T04:10:05;100918.94;;;21.15;90.98
18749;BME280;9503;53.560;10.246;2022-07-21T04:12:33;100918.13;;;21.22;90.43
18749;BME280;9503;53.560;10.246;2022-07-21T04:15:00;100906.19;;;21.48;89.40
18749;BME280;9503;53.560;10.246;2022-07-21T04:17:27;100896.38;;;21.20;89.56
18749;BME280;9503;53.560;10.246;2022-07-21T04:19:54;100901.59;;;21.21;89.83
18749;BME280;9503;53.560;10.246;2022-07-21T04:22:22;100908.59;;;21.25;89.47
18749;BME280;9503;53.560;10.246;2022-07-21T04:24:49;100914.88;;;21.46;88.38
18749;BME280;9503;53.560;10.246;2022-07-21T04:27:17;100925.41;;;21.60;87.46
18749;BME280;9503;53.560;10.246;2022-07-21T04:29:45;100930.75;;;21.84;86.17
18749;BME280;9503;53.560;10.246;2022-07-21T04:32:12;100936.88;;;21.92;85.43
18749;BME280;9503;53.560;10.246;2022-07-21T04:34:39;100942.06;;;21.86;86.07
18749;BME280;9503;53.560;10.246;2022-07-21T04:37:06;100929.94;;;22.00;84.93
18749;BME280;9503;53.560;10.246;2022-07-21T04:39:33;100929.22;;;22.23;84.23
18749;BME280;9503;53.560;10.246;2022-07-21T04:42:01;100926.59;;;22.23;83.69
18749;BME280;9503;53.560;10.246;2022-07-21T04:44:28;100926.56;;;22.15;83.96
18749;BME280;9503;53.560;10.246;2022-07-21T04:46:57;100921.38;;;22.21;83.35
18749;BME280;9503;53.560;10.246;2022-07-21T04:49:24;100919.72;;;22.40;83.04
18749;BME280;9503;53.560;10.246;2022-07-21T04:51:50;100915.31;;;22.30;82.32
18749;BME280;9503;53.560;10.246;2022-07-21T04:54:18;100922.28;;;22.34;82.56
18749;BME280;9503;53.560;10.246;2022-07-21T04:56:44;100919.66;;;22.28;82.46
18749;BME280;9503;53.560;10.246;2022-07-21T04:59:12;100913.59;;;22.35;82.03
18749;BME280;9503;53.560;10.246;2022-07-21T05:01:39;100910.97;;;22.40;81.45
18749;BME280;9503;53.560;10.246;2022-07-21T05:04:07;100917.97;;;22.51;80.52
18749;BME280;9503;53.560;10.246;2022-07-21T05:06:35;100907.56;;;22.77;79.66
18749;BME280;9503;53.560;10.246;2022-07-21T05:09:02;100877.09;;;22.90;78.44
18749;BME280;9503;53.560;10.246;2022-07-21T05:11:29;100843.13;;;22.92;78.30
18749;BME280;9503;53.560;10.246;2022-07-21T05:13:56;100823.06;;;23.00;77.30
18749;BME280;9503;53.560;10.246;2022-07-21T05:16:23;100837.88;;;22.87;77.28
18749;BME280;9503;53.560;10.246;2022-07-21T05:18:50;100851.81;;;22.95;77.07
18749;BME280;9503;53.560;10.246;2022-07-21T05:21:26;100854.41;;;23.06;76.84
18749;BME280;9503;53.560;10.246;2022-07-21T05:23:53;100870.06;;;23.33;76.09
18749;BME280;9503;53.560;10.246;2022-07-21T05:26:20;100870.88;;;23.70;74.23
18749;BME280;9503;53.560;10.246;2022-07-21T05:28:47;100855.13;;;23.78;73.99
18749;BME280;9503;53.560;10.246;2022-07-21T05:31:14;100841.25;;;23.52;73.80
18749;BME280;9503;53.560;10.246;2022-07-21T05:33:41;100846.47;;;23.68;73.90
18749;BME280;9503;53.560;10.246;2022-07-21T05:36:08;100829.00;;;23.69;73.14
18749;BME280;9503;53.560;10.246;2022-07-21T05:38:38;100822.03;;;23.73;72.48
18749;BME280;9503;53.560;10.246;2022-07-21T05:41:19;100820.28;;;23.62;71.95
18749;BME280;9503;53.560;10.246;2022-07-21T05:43:46;100818.50;;;23.70;71.82
18749;BME280;9503;53.560;10.246;2022-07-21T05:46:13;100813.31;;;23.55;71.90
18749;BME280;9503;53.560;10.246;2022-07-21T05:48:40;100802.75;;;23.84;70.82
18749;BME280;9503;53.560;10.246;2022-07-21T05:51:07;100809.75;;;23.76;70.97
18749;BME280;9503;53.560;10.246;2022-07-21T05:53:35;100828.97;;;23.70;70.60
18749;BME280;9503;53.560;10.246;2022-07-21T05:56:03;100831.59;;;23.72;70.67
18749;BME280;9503;53.560;10.246;2022-07-21T05:58:32;100854.31;;;23.67;71.13
18749;BME280;9503;53.560;10.246;2022-07-21T06:01:00;100888.31;;;23.79;71.37
18749;BME280;9503;53.560;10.246;2022-07-21T06:03:39;100910.13;;;23.83;70.72
18749;BME280;9503;53.560;10.246;2022-07-21T06:06:07;100910.94;;;23.97;70.75
18749;BME280;9503;53.560;10.246;2022-07-21T06:08:39;100925.00;;;23.71;71.48
18749;BME280;9503;53.560;10.246;2022-07-21T06:11:22;100945.00;;;23.97;71.04
18749;BME280;9503;53.560;10.246;2022-07-21T06:13:49;100949.41;;;23.84;71.71
18749;BME280;9503;53.560;10.246;2022-07-21T06:16:16;100935.44;;;23.85;71.48
18749;BME280;9503;53.560;10.246;2022-07-21T06:18:43;100923.16;;;23.93;71.51
18749;BME280;9503;53.560;10.246;2022-07-21T06:21:10;100913.56;;;23.97;71.20
18749;BME280;9503;53.560;10.246;2022-07-21T06:23:39;100892.56;;;24.06;70.96
18749;BME280;9503;53.560;10.246;2022-07-21T06:26:06;100905.75;;;23.88;71.87
18749;BME280;9503;53.560;10.246;2022-07-21T06:28:33;100920.50;;;24.06;71.24
18749;BME280;9503;53.560;10.246;2022-07-21T06:31:00;100917.94;;;23.92;72.39
18749;BME280;9503;53.560;10.246;2022-07-21T06:33:26;100913.66;;;23.76;72.89
18749;BME280;9503;53.560;10.246;2022-07-21T06:35:54;100914.47;;;23.85;73.37
18749;BME280;9503;53.560;10.246;2022-07-21T06:38:21;100911.00;;;23.88;73.22
18749;BME280;9503;53.560;10.246;2022-07-21T06:40:49;100897.88;;;23.85;74.50
18749;BME280;9503;53.560;10.246;2022-07-21T06:43:17;100886.59;;;23.80;74.73
18749;BME280;9503;53.560;10.246;2022-07-21T06:45:47;100870.03;;;23.56;76.49
18749;BME280;9503;53.560;10.246;2022-07-21T06:48:14;100867.44;;;23.52;77.62
18749;BME280;9503;53.560;10.246;2022-07-21T06:50:41;100848.31;;;23.24;79.09
18749;BME280;9503;53.560;10.246;2022-07-21T06:53:08;100846.53;;;23.33;79.15
18749;BME280;9503;53.560;10.246;2022-07-21T06:55:35;100856.97;;;23.35;79.10
18749;BME280;9503;53.560;10.246;2022-07-21T06:58:11;100852.63;;;23.40;77.73
18749;BME280;9503;53.560;10.246;2022-07-21T07:00:38;100858.75;;;23.27;77.71
18749;BME280;9503;53.560;10.246;2022-07-21T07:03:05;100867.53;;;23.00;79.60
18749;BME280;9503;53.560;10.246;2022-07-21T07:05:33;100853.56;;;22.95;80.04
18749;BME280;9503;53.560;10.246;2022-07-21T07:08:00;100850.06;;;22.64;83.03
18749;BME280;9503;53.560;10.246;2022-07-21T07:10:27;100862.19;;;22.28;85.35
18749;BME280;9503;53.560;10.246;2022-07-21T07:12:54;100882.16;;;22.14;86.63
18749;BME280;9503;53.560;10.246;2022-07-21T07:15:23;100901.22;;;21.97;87.38
18749;BME280;9503;53.560;10.246;2022-07-21T07:17:51;100916.03;;;21.97;88.26
18749;BME280;9503;53.560;10.246;2022-07-21T07:20:18;100908.22;;;22.06;88.54
18749;BME280;9503;53.560;10.246;2022-07-21T07:22:57;100909.91;;;21.93;88.80
18749;BME280;9503;53.560;10.246;2022-07-21T07:25:24;100913.50;;;22.17;88.72
18749;BME280;9503;53.560;10.246;2022-07-21T07:27:51;100940.44;;;22.06;88.90
18749;BME280;9503;53.560;10.246;2022-07-21T07:30:19;100943.81;;;21.86;90.27
18749;BME280;9503;53.560;10.246;2022-07-21T07:32:49;100947.09;;;21.57;91.65
18749;BME280;9503;53.560;10.246;2022-07-21T07:35:16;100951.34;;;21.40;93.05
18749;BME280;9503;53.560;10.246;2022-07-21T07:37:45;100962.72;;;21.49;93.41
18749;BME280;9503;53.560;10.246;2022-07-21T07:40:14;100967.00;;;21.44;93.39
18749;BME280;9503;53.560;10.246;2022-07-21T07:42:42;100974.75;;;21.31;92.98
18749;BME280;9503;53.560;10.246;2022-07-21T07:45:10;100972.22;;;21.44;93.21
18749;BME280;9503;53.560;10.246;2022-07-21T07:47:37;100974.16;;;21.67;92.21
18749;BME280;9503;53.560;10.246;2022-07-21T07:50:08;100978.19;;;21.28;94.19
18749;BME280;9503;53.560;10.246;2022-07-21T07:52:35;100986.13;;;21.43;94.01
18749;BME280;9503;53.560;10.246;2022-07-21T07:55:02;100992.34;;;21.58;94.37
18749;BME280;9503;53.560;10.246;2022-07-21T07:57:33;100994.19;;;21.69;93.46
18749;BME280;9503;53.560;10.246;2022-07-21T08:00:00;101002.97;;;21.84;92.83
18749;BME280;9503;53.560;10.246;2022-07-21T08:02:27;100999.53;;;21.92;92.51
18749;BME280;9503;53.560;10.246;2022-07-21T08:04:53;101007.38;;;21.92;93.81
18749;BME280;9503;53.560;10.246;2022-07-21T08:07:22;101010.97;;;22.08;92.51
18749;BME280;9503;53.560;10.246;2022-07-21T08:09:48;101017.13;;;22.15;92.34
18749;BME280;9503;53.560;10.246;2022-07-21T08:12:15;101018.13;;;22.47;91.93
18749;BME280;9503;53.560;10.246;2022-07-21T08:14:42;101031.25;;;22.61;91.30
18749;BME280;9503;53.560;10.246;2022-07-21T08:17:14;101041.66;;;22.47;92.10
18749;BME280;9503;53.560;10.246;2022-07-21T08:19:43;101029.53;;;22.63;91.07
18749;BME280;9503;53.560;10.246;2022-07-21T08:22:10;101036.50;;;22.64;91.47
18749;BME280;9503;53.560;10.246;2022-07-21T08:24:42;101030.56;;;23.15;90.66
18749;BME280;9503;53.560;10.246;2022-07-21T08:27:09;101029.69;;;23.56;88.92
18749;BME280;9503;53.560;10.246;2022-07-21T08:29:36;101034.06;;;23.91;85.67
18749;BME280;9503;53.560;10.246;2022-07-21T08:32:04;101027.97;;;23.92;86.28
18749;BME280;9503;53.560;10.246;2022-07-21T08:34:31;101037.47;;;24.37;84.10
18749;BME280;9503;53.560;10.246;2022-07-21T08:36:58;101030.47;;;24.44;84.11
18749;BME280;9503;53.560;10.246;2022-07-21T08:39:25;101026.06;;;24.55;83.65
18749;BME280;9503;53.560;10.246;2022-07-21T08:41:54;101023.09;;;25.16;80.97
18749;BME280;9503;53.560;10.246;2022-07-21T08:44:22;101021.50;;;24.88;80.98
18749;BME280;9503;53.560;10.246;2022-07-21T08:46:50;101026.78;;;24.85;80.20
18749;BME280;9503;53.560;10.246;2022-07-21T08:49:20;101023.56;;;25.72;76.21
18749;BME280;9503;53.560;10.246;2022-07-21T08:51:47;101021.59;;;25.90;77.02
18749;BME280;9503;53.560;10.246;2022-07-21T08:54:15;101021.44;;;26.06;74.80
18749;BME280;9503;53.560;10.246;2022-07-21T08:56:41;101033.88;;;25.93;75.11
18749;BME280;9503;53.560;10.246;2022-07-21T08:59:10;101034.06;;;25.67;75.92
18749;BME280;9503;53.560;10.246;2022-07-21T09:01:38;101028.03;;;25.54;77.50
18749;BME280;9503;53.560;10.246;2022-07-21T09:04:22;101035.47;;;24.90;79.35
18749;BME280;9503;53.560;10.246;2022-07-21T09:06:52;101033.91;;;24.52;81.85
18749;BME280;9503;53.560;10.246;2022-07-21T09:09:19;101047.03;;;24.50;80.98
18749;BME280;9503;53.560;10.246;2022-07-21T09:11:47;101046.19;;;24.30;82.46
18749;BME280;9503;53.560;10.246;2022-07-21T09:14:16;101054.78;;;24.75;80.31
18749;BME280;9503;53.560;10.246;2022-07-21T09:16:46;101045.84;;;25.20;78.90
18749;BME280;9503;53.560;10.246;2022-07-21T09:19:19;101043.31;;;25.06;79.35
18749;BME280;9503;53.560;10.246;2022-07-21T09:21:47;101039.78;;;25.04;79.24
18749;BME280;9503;53.560;10.246;2022-07-21T09:24:17;101042.69;;;25.87;77.86
18749;BME280;9503;53.560;10.246;2022-07-21T09:27:12;101048.88;;;25.80;77.07
18749;BME280;9503;53.560;10.246;2022-07-21T09:29:43;101048.94;;;25.71;78.37
18749;BME280;9503;53.560;10.246;2022-07-21T09:32:14;101043.50;;;25.91;76.91
18749;BME280;9503;53.560;10.246;2022-07-21T09:34:41;101049.84;;;25.72;79.95
18749;BME280;9503;53.560;10.246;2022-07-21T09:37:08;101049.56;;;26.01;77.32
18749;BME280;9503;53.560;10.246;2022-07-21T09:39:46;101048.31;;;26.32;76.37
18749;BME280;9503;53.560;10.246;2022-07-21T09:42:15;101053.97;;;25.96;76.33
18749;BME280;9503;53.560;10.246;2022-07-21T09:44:46;101053.66;;;25.28;79.33
18749;BME280;9503;53.560;10.246;2022-07-21T09:47:17;101059.22;;;25.96;78.00
18749;BME280;9503;53.560;10.246;2022-07-21T09:49:44;101048.28;;;25.40;76.83
18749;BME280;9503;53.560;10.246;2022-07-21T09:52:19;101052.41;;;25.70;76.24
18749;BME280;9503;53.560;10.246;2022-07-21T09:54:46;101051.72;;;26.43;73.60
18749;BME280;9503;53.560;10.246;2022-07-21T09:57:14;101046.53;;;26.37;73.33
18749;BME280;9503;53.560;10.246;2022-07-21T09:59:43;101044.31;;;26.73;72.18
18749;BME280;9503;53.560;10.246;2022-07-21T10:02:22;101051.50;;;25.77;75.93
18749;BME280;9503;53.560;10.246;2022-07-21T10:04:56;101048.06;;;25.68;75.63
18749;BME280;9503;53.560;10.246;2022-07-21T10:07:24;101045.41;;;26.57;73.45
18749;BME280;9503;53.560;10.246;2022-07-21T10:09:51;101037.22;;;26.81;72.02
18749;BME280;9503;53.560;10.246;2022-07-21T10:12:18;101049.28;;;26.94;72.02
18749;BME280;9503;53.560;10.246;2022-07-21T10:14:45;101049.88;;;26.52;73.08
18749;BME280;9503;53.560;10.246;2022-07-21T10:17:13;101044.97;;;26.92;71.16
18749;BME280;9503;53.560;10.246;2022-07-21T10:19:52;101051.78;;;27.07;70.49
18749;BME280;9503;53.560;10.246;2022-07-21T10:22:28;101050.81;;;27.14;70.27
18749;BME280;9503;53.560;10.246;2022-07-21T10:24:57;101062.00;;;28.31;66.99
18749;BME280;9503;53.560;10.246;2022-07-21T10:27:25;101065.31;;;28.41;66.65
18749;BME280;9503;53.560;10.246;2022-07-21T10:29:54;101057.69;;;28.26;67.91
18749;BME280;9503;53.560;10.246;2022-07-21T10:32:23;101056.66;;;28.76;65.35
18749;BME280;9503;53.560;10.246;2022-07-21T10:34:51;101064.88;;;28.18;66.90
18749;BME280;9503;53.560;10.246;2022-07-21T10:37:43;101065.69;;;27.73;67.94
18749;BME280;9503;53.560;10.246;2022-07-21T10:40:34;101061.16;;;28.73;65.22
18749;BME280;9503;53.560;10.246;2022-07-21T10:43:39;101065.44;;;28.37;65.44
18749;BME280;9503;53.560;10.246;2022-07-21T10:46:33;101062.84;;;27.86;66.60
18749;BME280;9503;53.560;10.246;2022-07-21T10:49:02;101070.69;;;28.38;65.78
18749;BME280;9503;53.560;10.246;2022-07-21T10:51:33;101071.81;;;27.74;67.84
18749;BME280;9503;53.560;10.246;2022-07-21T10:54:21;101064.16;;;28.09;67.20
18749;BME280;9503;53.560;10.246;2022-07-21T11:00:19;101072.78;;;27.67;67.82
18749;BME280;9503;53.560;10.246;2022-07-21T11:02:47;101068.06;;;28.78;65.73
18749;BME280;9503;53.560;10.246;2022-07-21T11:05:15;101057.75;;;29.81;62.76
18749;BME280;9503;53.560;10.246;2022-07-21T11:08:16;101071.13;;;29.02;64.00
18749;BME280;9503;53.560;10.246;2022-07-21T11:10:46;101065.97;;;28.96;63.67
18749;BME280;9503;53.560;10.246;2022-07-21T11:13:14;101068.75;;;28.86;63.52
18749;BME280;9503;53.560;10.246;2022-07-21T11:15:57;101076.59;;;28.51;64.03
18749;BME280;9503;53.560;10.246;2022-07-21T11:18:25;101069.47;;;27.56;66.67
18749;BME280;9503;53.560;10.246;2022-07-21T11:21:11;101078.09;;;28.16;64.69
18749;BME280;9503;53.560;10.246;2022-07-21T11:23:43;101075.41;;;27.67;65.86
18749;BME280;9503;53.560;10.246;2022-07-21T11:26:13;101065.94;;;28.09;64.27
18749;BME280;9503;53.560;10.246;2022-07-21T11:28:41;101070.72;;;27.87;65.99
18749;BME280;9503;53.560;10.246;2022-07-21T11:31:14;101073.91;;;27.52;66.28
18749;BME280;9503;53.560;10.246;2022-07-21T11:33:43;101076.63;;;27.49;66.32
18749;BME280;9503;53.560;10.246;2022-07-21T11:36:22;101075.28;;;26.54;68.36
18749;BME280;9503;53.560;10.246;2022-07-21T11:39:00;101074.25;;;26.64;68.46
18749;BME280;9503;53.560;10.246;2022-07-21T11:41:27;101067.03;;;26.82;68.73
18749;BME280;9503;53.560;10.246;2022-07-21T11:43:54;101065.84;;;27.63;67.04
18749;BME280;9503;53.560;10.246;2022-07-21T11:46:21;101069.78;;;27.91;66.49
18749;BME280;9503;53.560;10.246;2022-07-21T11:48:48;101072.34;;;28.42;64.85
18749;BME280;9503;53.560;10.246;2022-07-21T11:51:15;101072.28;;;28.45;64.03
18749;BME280;9503;53.560;10.246;2022-07-21T11:53:43;101065.03;;;28.98;62.69
18749;BME280;9503;53.560;10.246;2022-07-21T11:56:15;101055.75;;;28.77;62.68
18749;BME280;9503;53.560;10.246;2022-07-21T11:58:43;101059.09;;;28.87;63.46
18749;BME280;9503;53.560;10.246;2022-07-21T12:01:10;101048.91;;;29.10;63.10
18749;BME280;9503;53.560;10.246;2022-07-21T12:03:48;101049.69;;;30.19;59.79
18749;BME280;9503;53.560;10.246;2022-07-21T12:06:15;101039.56;;;30.01;59.72
18749;BME280;9503;53.560;10.246;2022-07-21T12:08:47;101040.78;;;30.83;59.34
18749;BME280;9503;53.560;10.246;2022-07-21T12:11:15;101035.06;;;30.96;57.29
18749;BME280;9503;53.560;10.246;2022-07-21T12:13:52;101031.94;;;31.12;56.25
18749;BME280;9503;53.560;10.246;2022-07-21T12:16:19;101031.59;;;28.55;60.89
18749;BME280;9503;53.560;10.246;2022-07-21T12:18:46;101042.66;;;28.74;61.34
18749;BME280;9503;53.560;10.246;2022-07-21T12:21:13;101042.69;;;29.50;60.40
18749;BME280;9503;53.560;10.246;2022-07-21T12:23:39;101036.09;;;29.66;59.13
18749;BME280;9503;53.560;10.246;2022-07-21T12:26:21;101036.03;;;31.23;56.97
18749;BME280;9503;53.560;10.246;2022-07-21T12:28:50;101038.09;;;29.57;61.12
18749;BME280;9503;53.560;10.246;2022-07-21T12:31:20;101030.28;;;31.35;55.98
18749;BME280;9503;53.560;10.246;2022-07-21T12:33:49;101025.97;;;31.05;55.96
18749;BME280;9503;53.560;10.246;2022-07-21T12:36:19;101031.84;;;30.27;57.23
18749;BME280;9503;53.560;10.246;2022-07-21T12:38:48;101026.75;;;30.20;57.60
18749;BME280;9503;53.560;10.246;2022-07-21T12:41:17;101027.16;;;30.03;57.75
18749;BME280;9503;53.560;10.246;2022-07-21T12:43:54;101021.50;;;30.79;56.89
18749;BME280;9503;53.560;10.246;2022-07-21T12:46:28;101016.19;;;29.86;58.31
18749;BME280;9503;53.560;10.246;2022-07-21T12:49:02;101014.06;;;30.61;57.77
18749;BME280;9503;53.560;10.246;2022-07-21T12:51:30;101009.94;;;30.81;57.12
18749;BME280;9503;53.560;10.246;2022-07-21T12:53:57;101014.03;;;30.33;57.90
18749;BME280;9503;53.560;10.246;2022-07-21T12:56:26;101014.13;;;31.95;55.16
18749;BME280;9503;53.560;10.246;2022-07-21T12:58:56;101003.16;;;32.97;52.69
18749;BME280;9503;53.560;10.246;2022-07-21T13:01:25;101006.78;;;31.78;54.19
18749;BME280;9503;53.560;10.246;2022-07-21T13:03:52;101010.28;;;32.52;52.74
18749;BME280;9503;53.560;10.246;2022-07-21T13:06:20;101007.25;;;32.84;52.37
18749;BME280;9503;53.560;10.246;2022-07-21T13:08:47;101008.53;;;32.04;52.96
18749;BME280;9503;53.560;10.246;2022-07-21T13:11:16;101002.38;;;31.52;53.94